sensor_id;sensor_type;location;lat;lon;timestamp;pressure;altitude;pressure_sealevel;temperature;humidity
9277;BME280;4676;42.678;23.244;2023-05-10T00:00:33;94366.84;;;8.95;100.00
9277;BME280;4676;42.678;23.244;2023-05-10T00:03:00;94358.41;;;8.94;100.00
9277;BME280;4676;42.678;23.244;2023-05-10T00:05:29;94356.50;;;9.02;100.00
9277;BME280;4676;42.678;23.244;2023-05-10T00:07:56;94336.16;;;8.79;100.00
9277;BME280;4676;42.678;23.244;2023-05-10T00:10:23;94354.25;;;8.93;100.00
9277;BME280;4676;42.678;23.244;2023-05-10T00:12:51;94344.09;;;8.95;100.00
9277;BME280;4676;42.678;23.244;2023-05-10T00:15:18;94359.16;;;8.98;100.00
9277;BME280;4676;42.678;23.244;2023-05-10T00:17:44;94345.84;;;8.93;100.00
9277;BME280;4676;42.678;23.244;2023-05-10T00:20:11;94347.31;;;9.00;100.00
9277;BME280;4676;42.678;23.244;2023-05-10T00:22:38;94351.56;;;8.98;100.00
9277;BME280;4676;42.678;23.244;2023-05-10T00:25:06;94342.59;;;8.89;100.00
9277;BME280;4676;42.678;23.244;2023-05-10T00:27:33;94340.91;;;8.88;100.00
9277;BME280;4676;42.678;23.244;2023-05-10T00:30:01;94339.22;;;8.89;100.00
9277;BME280;4676;42.678;23.244;2023-05-10T00:32:28;94333.38;;;8.87;100.00
9277;BME280;4676;42.678;23.244;2023-05-10T00:34:55;94333.34;;;8.88;100.00
9277;BME280;4676;42.678;23.244;2023-05-10T00:37:21;94332.59;;;8.85;100.00
9277;BME280;4676;42.678;23.244;2023-05-10T00:39:48;94337.00;;;8.78;100.00
9277;BME280;4676;42.678;23.244;2023-05-10T00:42:15;94331.25;;;8.73;100.00
9277;BME280;4676;42.678;23.244;2023-05-10T00:44:41;94313.00;;;8.64;100.00
9277;BME280;4676;42.678;23.244;2023-05-10T00:47:10;94325.78;;;8.59;100.00
9277;BME280;4676;42.678;23.244;2023-05-10T00:49:37;94331.88;;;8.52;100.00
9277;BME280;4676;42.678;23.244;2023-05-10T00:52:04;94307.88;;;8.37;100.00
9277;BME280;4676;42.678;23.244;2023-05-10T00:54:31;94320.47;;;8.39;100.00
9277;BME280;4676;42.678;23.244;2023-05-10T00:56:58;94320.25;;;8.46;100.00
9277;BME280;4676;42.678;23.244;2023-05-10T00:59:25;94325.41;;;8.42;100.00
9277;BME280;4676;42.678;23.244;2023-05-10T01:01:51;94324.56;;;8.43;100.00
9277;BME280;4676;42.678;23.244;2023-05-10T01:04:20;94320.44;;;8.40;100.00
9277;BME280;4676;42.678;23.244;2023-05-10T01:06:50;94322.16;;;8.38;100.00
9277;BME280;4676;42.678;23.244;2023-05-10T01:09:18;94312.19;;;8.34;100.00
9277;BME280;4676;42.678;23.244;2023-05-10T01:11:45;94320.38;;;8.42;100.00
9277;BME280;4676;42.678;23.244;2023-05-10T01:14:12;94322.28;;;8.34;100.00
9277;BME280;4676;42.678;23.244;2023-05-10T01:16:40;94312.16;;;8.35;100.00
9277;BME280;4676;42.678;23.244;2023-05-10T01:19:22;94313.06;;;8.33;100.00
9277;BME280;4676;42.678;23.244;2023-05-10T01:21:56;94308.03;;;8.33;100.00
9277;BME280;4676;42.678;23.244;2023-05-10T01:24:40;94308.09;;;8.30;100.00
9277;BME280;4676;42.678;23.244;2023-05-10T01:27:41;94297.53;;;8.16;100.00
9277;BME280;4676;42.678;23.244;2023-05-10T01:30:30;94298.38;;;8.15;100.00
9277;BME280;4676;42.678;23.244;2023-05-10T01:33:10;94283.16;;;8.18;100.00
9277;BME280;4676;42.678;23.244;2023-05-10T01:35:41;94294.66;;;8.28;100.00
9277;BME280;4676;42.678;23.244;2023-05-10T01:38:14;94291.44;;;8.23;100.00
9277;BME280;4676;42.678;23.244;2023-05-10T01:40:51;94287.25;;;8.22;100.00
9277;BME280;4676;42.678;23.244;2023-05-10T01:43:22;94255.88;;;8.01;100.00
9277;BME280;4676;42.678;23.244;2023-05-10T01:45:58;94278.97;;;8.17;100.00
9277;BME280;4676;42.678;23.244;2023-05-10T01:48:28;94278.00;;;8.22;100.00
9277;BME280;4676;42.678;23.244;2023-05-10T01:50:57;94281.50;;;8.17;100.00
9277;BME280;4676;42.678;23.244;2023-05-10T01:53:24;94279.81;;;8.17;100.00
9277;BME280;4676;42.678;23.244;2023-05-10T01:55:52;94276.44;;;8.17;100.00
9277;BME280;4676;42.678;23.244;2023-05-10T01:58:22;94276.75;;;8.06;100.00
9277;BME280;4676;42.678;23.244;2023-05-10T02:00:52;94290.00;;;8.14;100.00
9277;BME280;4676;42.678;23.244;2023-05-10T02:03:22;94277.72;;;8.02;100.00
9277;BME280;4676;42.678;23.244;2023-05-10T02:05:52;94283.38;;;8.10;100.00
9277;BME280;4676;42.678;23.244;2023-05-10T02:08:21;94286.81;;;8.08;100.00
9277;BME280;4676;42.678;23.244;2023-05-10T02:10:50;94278.69;;;7.96;100.00
9277;BME280;4676;42.678;23.244;2023-05-10T02:13:18;94287.72;;;8.05;100.00
9277;BME280;4676;42.678;23.244;2023-05-10T02:15:46;94279.44;;;8.00;100.00
9277;BME280;4676;42.678;23.244;2023-05-10T02:18:15;94281.19;;;7.98;100.00
9277;BME280;4676;42.678;23.244;2023-05-10T02:20:43;94285.44;;;7.96;100.00
9277;BME280;4676;42.678;23.244;2023-05-10T02:23:13;94275.50;;;7.91;100.00
9277;BME280;4676;42.678;23.244;2023-05-10T02:25:42;94277.25;;;7.88;100.00
9277;BME280;4676;42.678;23.244;2023-05-10T02:28:10;94290.75;;;7.85;100.00
9277;BME280;4676;42.678;23.244;2023-05-10T02:30:38;94284.13;;;7.81;100.00
9277;BME280;4676;42.678;23.244;2023-05-10T02:33:05;94288.38;;;7.81;100.00
9277;BME280;4676;42.678;23.244;2023-05-10T02:35:33;94277.13;;;7.60;100.00
9277;BME280;4676;42.678;23.244;2023-05-10T02:38:01;94272.44;;;7.46;100.00
9277;BME280;4676;42.678;23.244;2023-05-10T02:40:30;94277.91;;;7.31;100.00
9277;BME280;4676;42.678;23.244;2023-05-10T02:42:59;94270.59;;;7.21;100.00
9277;BME280;4676;42.678;23.244;2023-05-10T02:45:31;94269.00;;;7.17;100.00
9277;BME280;4676;42.678;23.244;2023-05-10T02:47:58;94241.69;;;7.00;100.00
9277;BME280;4676;42.678;23.244;2023-05-10T02:50:27;94266.81;;;7.03;100.00
9277;BME280;4676;42.678;23.244;2023-05-10T02:53:00;94268.28;;;7.12;100.00
9277;BME280;4676;42.678;23.244;2023-05-10T02:55:32;94275.97;;;7.07;100.00
9277;BME280;4676;42.678;23.244;2023-05-10T02:58:02;94272.47;;;7.11;100.00
9277;BME280;4676;42.678;23.244;2023-05-10T03:00:29;94271.69;;;7.09;100.00
9277;BME280;4676;42.678;23.244;2023-05-10T03:02:56;94274.31;;;7.06;100.00
9277;BME280;4676;42.678;23.244;2023-05-10T03:05:22;94274.16;;;7.12;100.00
9277;BME280;4676;42.678;23.244;2023-05-10T03:07:49;94279.91;;;7.17;100.00
9277;BME280;4676;42.678;23.244;2023-05-10T03:10:17;94280.00;;;7.14;100.00
9277;BME280;4676;42.678;23.244;2023-05-10T03:12:59;94278.06;;;7.24;100.00
9277;BME280;4676;42.678;23.244;2023-05-10T03:15:37;94282.94;;;7.31;100.00
9277;BME280;4676;42.678;23.244;2023-05-10T03:18:07;94279.66;;;7.28;100.00
9277;BME280;4676;42.678;23.244;2023-05-10T03:20:41;94278.06;;;7.24;100.00
9277;BME280;4676;42.678;23.244;2023-05-10T03:23:12;94279.09;;;7.17;100.00
9277;BME280;4676;42.678;23.244;2023-05-10T03:25:41;94288.34;;;7.16;100.00
9277;BME280;4676;42.678;23.244;2023-05-10T03:28:11;94284.97;;;7.16;100.00
9277;BME280;4676;42.678;23.244;2023-05-10T03:30:39;94293.22;;;7.22;100.00
9277;BME280;4676;42.678;23.244;2023-05-10T03:33:07;94293.03;;;7.30;100.00
9277;BME280;4676;42.678;23.244;2023-05-10T03:35:34;94292.31;;;7.25;100.00
9277;BME280;4676;42.678;23.244;2023-05-10T03:38:01;94297.34;;;7.25;100.00
9277;BME280;4676;42.678;23.244;2023-05-10T03:40:28;94294.03;;;7.24;100.00
9277;BME280;4676;42.678;23.244;2023-05-10T03:42:57;94289.06;;;7.21;100.00
9277;BME280;4676;42.678;23.244;2023-05-10T03:45:25;94286.81;;;7.11;100.00
9277;BME280;4676;42.678;23.244;2023-05-10T03:47:52;94304.47;;;7.09;100.00
9277;BME280;4676;42.678;23.244;2023-05-10T03:50:19;94297.75;;;7.10;100.00
9277;BME280;4676;42.678;23.244;2023-05-10T03:52:46;94291.63;;;7.18;100.00
9277;BME280;4676;42.678;23.244;2023-05-10T03:55:12;94295.91;;;7.16;100.00
9277;BME280;4676;42.678;23.244;2023-05-10T03:57:39;94299.94;;;7.22;100.00
9277;BME280;4676;42.678;23.244;2023-05-10T04:00:06;94286.66;;;7.17;100.00
9277;BME280;4676;42.678;23.244;2023-05-10T04:02:35;94306.06;;;7.13;100.00
9277;BME280;4676;42.678;23.244;2023-05-10T04:05:01;94311.03;;;7.16;100.00
9277;BME280;4676;42.678;23.244;2023-05-10T04:07:28;94310.19;;;7.16;100.00
9277;BME280;4676;42.678;23.244;2023-05-10T04:09:55;94287.31;;;6.89;100.00
9277;BME280;4676;42.678;23.244;2023-05-10T04:12:21;94308.91;;;6.99;100.00
9277;BME280;4676;42.678;23.244;2023-05-10T04:14:48;94312.03;;;7.08;100.00
9277;BME280;4676;42.678;23.244;2023-05-10T04:17:15;94316.47;;;6.99;100.00
9277;BME280;4676;42.678;23.244;2023-05-10T04:19:43;94316.56;;;6.93;100.00
9277;BME280;4676;42.678;23.244;2023-05-10T04:22:09;94261.03;;;6.63;100.00
9277;BME280;4676;42.678;23.244;2023-05-10T04:24:36;94307.91;;;7.05;100.00
9277;BME280;4676;42.678;23.244;2023-05-10T04:27:03;94307.75;;;7.11;100.00
9277;BME280;4676;42.678;23.244;2023-05-10T04:29:29;94293.81;;;6.98;100.00
9277;BME280;4676;42.678;23.244;2023-05-10T04:31:56;94312.28;;;6.97;100.00
9277;BME280;4676;42.678;23.244;2023-05-10T04:34:23;94312.19;;;7.01;100.00
9277;BME280;4676;42.678;23.244;2023-05-10T04:36:51;94314.72;;;7.01;100.00
9277;BME280;4676;42.678;23.244;2023-05-10T04:39:18;94306.25;;;7.04;100.00
9277;BME280;4676;42.678;23.244;2023-05-10T04:41:44;94315.69;;;6.96;100.00
9277;BME280;4676;42.678;23.244;2023-05-10T04:44:11;94312.19;;;7.03;100.00
9277;BME280;4676;42.678;23.244;2023-05-10T04:46:38;94310.34;;;7.10;100.00
9277;BME280;4676;42.678;23.244;2023-05-10T04:49:04;94311.94;;;7.12;100.00
9277;BME280;4676;42.678;23.244;2023-05-10T04:51:31;94310.25;;;7.13;100.00
9277;BME280;4676;42.678;23.244;2023-05-10T04:53:59;94314.19;;;7.24;100.00
9277;BME280;4676;42.678;23.244;2023-05-10T04:56:26;94313.09;;;7.34;100.00
9277;BME280;4676;42.678;23.244;2023-05-10T04:58:53;94310.94;;;7.19;100.00
9277;BME280;4676;42.678;23.244;2023-05-10T05:01:19;94317.00;;;7.12;100.00
9277;BME280;4676;42.678;23.244;2023-05-10T05:03:46;94314.31;;;7.18;100.00
9277;BME280;4676;42.678;23.244;2023-05-10T05:06:13;94318.31;;;7.27;100.00
9277;BME280;4676;42.678;23.244;2023-05-10T05:08:39;94314.88;;;7.31;100.00
9277;BME280;4676;42.678;23.244;2023-05-10T05:11:08;94321.84;;;7.20;100.00
9277;BME280;4676;42.678;23.244;2023-05-10T05:13:34;94319.00;;;7.33;100.00
9277;BME280;4676;42.678;23.244;2023-05-10T05:16:01;94313.78;;;7.41;100.00
9277;BME280;4676;42.678;23.244;2023-05-10T05:18:28;94320.44;;;7.43;100.00
9277;BME280;4676;42.678;23.244;2023-05-10T05:20:55;94314.56;;;7.43;100.00
9277;BME280;4676;42.678;23.244;2023-05-10T05:23:22;94320.16;;;7.54;100.00
9277;BME280;4676;42.678;23.244;2023-05-10T05:25:51;94327.03;;;7.81;100.00
9277;BME280;4676;42.678;23.244;2023-05-10T05:28:19;94285.94;;;7.45;100.00
9277;BME280;4676;42.678;23.244;2023-05-10T05:30:46;94340.84;;;7.68;100.00
9277;BME280;4676;42.678;23.244;2023-05-10T05:33:13;94330.53;;;7.77;100.00
9277;BME280;4676;42.678;23.244;2023-05-10T05:35:40;94334.94;;;7.68;100.00
9277;BME280;4676;42.678;23.244;2023-05-10T05:38:08;94337.34;;;7.74;100.00
9277;BME280;4676;42.678;23.244;2023-05-10T05:40:35;94345.97;;;7.65;100.00
9277;BME280;4676;42.678;23.244;2023-05-10T05:43:02;94333.44;;;7.62;100.00
9277;BME280;4676;42.678;23.244;2023-05-10T05:45:30;94339.13;;;7.70;100.00
9277;BME280;4676;42.678;23.244;2023-05-10T05:47:56;94340.00;;;7.68;100.00
9277;BME280;4676;42.678;23.244;2023-05-10T05:50:23;94337.91;;;7.51;100.00
9277;BME280;4676;42.678;23.244;2023-05-10T05:52:50;94347.81;;;7.59;100.00
9277;BME280;4676;42.678;23.244;2023-05-10T05:55:16;94347.63;;;7.66;100.00
9277;BME280;4676;42.678;23.244;2023-05-10T05:57:43;94320.97;;;7.56;100.00
9277;BME280;4676;42.678;23.244;2023-05-10T06:00:11;94343.47;;;7.64;100.00
9277;BME280;4676;42.678;23.244;2023-05-10T06:02:39;94345.88;;;7.68;100.00
9277;BME280;4676;42.678;23.244;2023-05-10T06:05:07;94347.63;;;7.66;100.00
9277;BME280;4676;42.678;23.244;2023-05-10T06:07:34;94338.38;;;7.65;100.00
9277;BME280;4676;42.678;23.244;2023-05-10T06:10:01;94352.59;;;7.68;100.00
9277;BME280;4676;42.678;23.244;2023-05-10T06:12:28;94356.72;;;7.72;100.00
9277;BME280;4676;42.678;23.244;2023-05-10T06:14:55;94354.03;;;7.78;100.00
9277;BME280;4676;42.678;23.244;2023-05-10T06:17:21;94355.69;;;7.79;100.00
9277;BME280;4676;42.678;23.244;2023-05-10T06:19:50;94360.06;;;7.72;100.00
9277;BME280;4676;42.678;23.244;2023-05-10T06:22:17;94357.47;;;7.75;100.00
9277;BME280;4676;42.678;23.244;2023-05-10T06:24:44;94363.28;;;7.79;100.00
9277;BME280;4676;42.678;23.244;2023-05-10T06:27:10;94351.28;;;7.87;100.00
9277;BME280;4676;42.678;23.244;2023-05-10T06:29:37;94357.88;;;7.92;100.00
9277;BME280;4676;42.678;23.244;2023-05-10T06:32:04;94354.19;;;8.06;100.00
9277;BME280;4676;42.678;23.244;2023-05-10T06:34:31;94362.41;;;8.12;100.00
9277;BME280;4676;42.678;23.244;2023-05-10T06:36:59;94345.13;;;7.98;100.00
9277;BME280;4676;42.678;23.244;2023-05-10T06:39:26;94361.50;;;8.15;100.00
9277;BME280;4676;42.678;23.244;2023-05-10T06:41:52;94360.66;;;8.14;100.00
9277;BME280;4676;42.678;23.244;2023-05-10T06:44:19;94367.19;;;8.23;100.00
9277;BME280;4676;42.678;23.244;2023-05-10T06:46:46;94367.97;;;8.25;100.00
9277;BME280;4676;42.678;23.244;2023-05-10T06:49:13;94352.25;;;8.14;100.00
9277;BME280;4676;42.678;23.244;2023-05-10T06:51:40;94357.44;;;8.09;100.00
9277;BME280;4676;42.678;23.244;2023-05-10T06:54:08;94363.19;;;8.14;100.00
9277;BME280;4676;42.678;23.244;2023-05-10T06:56:34;94370.56;;;8.22;100.00
9277;BME280;4676;42.678;23.244;2023-05-10T06:59:01;94371.28;;;8.27;100.00
9277;BME280;4676;42.678;23.244;2023-05-10T07:01:28;94361.53;;;8.13;100.00
9277;BME280;4676;42.678;23.244;2023-05-10T07:03:54;94367.88;;;8.28;100.00
9277;BME280;4676;42.678;23.244;2023-05-10T07:06:21;94373.16;;;8.19;100.00
9277;BME280;4676;42.678;23.244;2023-05-10T07:08:48;94371.31;;;8.25;100.00
9277;BME280;4676;42.678;23.244;2023-05-10T07:11:16;94375.28;;;8.35;100.00
9277;BME280;4676;42.678;23.244;2023-05-10T07:13:43;94369.38;;;8.36;100.00
9277;BME280;4676;42.678;23.244;2023-05-10T07:16:11;94373.59;;;8.36;100.00
9277;BME280;4676;42.678;23.244;2023-05-10T07:18:38;94375.81;;;8.46;100.00
9277;BME280;4676;42.678;23.244;2023-05-10T07:21:05;94377.06;;;8.32;100.00
9277;BME280;4676;42.678;23.244;2023-05-10T07:23:31;94370.47;;;8.25;100.00
9277;BME280;4676;42.678;23.244;2023-05-10T07:25:58;94310.47;;;8.03;100.00
9277;BME280;4676;42.678;23.244;2023-05-10T07:28:26;94372.53;;;8.43;100.00
9277;BME280;4676;42.678;23.244;2023-05-10T07:30:53;94371.63;;;8.45;100.00
9277;BME280;4676;42.678;23.244;2023-05-10T07:33:20;94372.56;;;8.41;100.00
9277;BME280;4676;42.678;23.244;2023-05-10T07:35:46;94365.06;;;8.40;100.00
9277;BME280;4676;42.678;23.244;2023-05-10T07:38:13;94372.34;;;8.50;100.00
9277;BME280;4676;42.678;23.244;2023-05-10T07:40:40;94376.16;;;8.64;100.00
9277;BME280;4676;42.678;23.244;2023-05-10T07:43:06;94373.66;;;8.62;100.00
9277;BME280;4676;42.678;23.244;2023-05-10T07:45:35;94383.94;;;8.58;100.00
9277;BME280;4676;42.678;23.244;2023-05-10T07:48:01;94382.09;;;8.63;100.00
9277;BME280;4676;42.678;23.244;2023-05-10T07:50:28;94378.66;;;8.65;100.00
9277;BME280;4676;42.678;23.244;2023-05-10T07:52:55;94377.75;;;8.68;100.00
9277;BME280;4676;42.678;23.244;2023-05-10T07:55:22;94379.31;;;8.72;100.00
9277;BME280;4676;42.678;23.244;2023-05-10T07:57:48;94378.44;;;8.73;100.00
9277;BME280;4676;42.678;23.244;2023-05-10T08:00:18;94380.16;;;8.72;100.00
9277;BME280;4676;42.678;23.244;2023-05-10T08:02:46;94381.69;;;8.76;100.00
9277;BME280;4676;42.678;23.244;2023-05-10T08:05:13;94384.50;;;8.67;100.00
9277;BME280;4676;42.678;23.244;2023-05-10T08:07:40;94389.38;;;8.73;100.00
9277;BME280;4676;42.678;23.244;2023-05-10T08:10:08;94345.22;;;8.57;100.00
9277;BME280;4676;42.678;23.244;2023-05-10T08:12:36;94389.47;;;8.99;100.00
9277;BME280;4676;42.678;23.244;2023-05-10T08:15:03;94365.16;;;8.94;100.00
9277;BME280;4676;42.678;23.244;2023-05-10T08:17:30;94384.84;;;9.12;100.00
9277;BME280;4676;42.678;23.244;2023-05-10T08:19:58;94384.94;;;9.09;100.00
9277;BME280;4676;42.678;23.244;2023-05-10T08:22:25;94377.91;;;9.19;100.00
9277;BME280;4676;42.678;23.244;2023-05-10T08:24:51;94348.56;;;9.15;100.00
9277;BME280;4676;42.678;23.244;2023-05-10T08:27:18;94391.88;;;9.32;100.00
9277;BME280;4676;42.678;23.244;2023-05-10T08:29:45;94393.91;;;9.47;100.00
9277;BME280;4676;42.678;23.244;2023-05-10T08:32:11;94383.34;;;9.34;100.00
9277;BME280;4676;42.678;23.244;2023-05-10T08:34:38;94388.34;;;9.36;100.00
9277;BME280;4676;42.678;23.244;2023-05-10T08:37:06;94375.03;;;9.31;100.00
9277;BME280;4676;42.678;23.244;2023-05-10T08:39:34;94379.88;;;9.37;100.00
9277;BME280;4676;42.678;23.244;2023-05-10T08:42:03;94383.88;;;9.44;100.00
9277;BME280;4676;42.678;23.244;2023-05-10T08:44:32;94373.47;;;9.27;100.00
9277;BME280;4676;42.678;23.244;2023-05-10T08:47:04;94387.44;;;9.38;100.00
9277;BME280;4676;42.678;23.244;2023-05-10T08:49:32;94379.88;;;9.37;100.00
9277;BME280;4676;42.678;23.244;2023-05-10T08:52:02;94386.03;;;9.56;100.00
9277;BME280;4676;42.678;23.244;2023-05-10T08:54:31;94377.97;;;9.45;100.00
9277;BME280;4676;42.678;23.244;2023-05-10T08:56:58;94364.69;;;9.38;100.00
9277;BME280;4676;42.678;23.244;2023-05-10T08:59:25;94376.44;;;9.66;100.00
9277;BME280;4676;42.678;23.244;2023-05-10T09:01:52;94388.72;;;9.78;100.00
9277;BME280;4676;42.678;23.244;2023-05-10T09:04:20;94388.16;;;9.68;100.00
9277;BME280;4676;42.678;23.244;2023-05-10T09:06:47;94384.19;;;9.61;100.00
9277;BME280;4676;42.678;23.244;2023-05-10T09:09:14;94387.94;;;9.76;100.00
9277;BME280;4676;42.678;23.244;2023-05-10T09:11:44;94387.72;;;9.82;100.00
9277;BME280;4676;42.678;23.244;2023-05-10T09:14:12;94346.06;;;9.39;100.00
9277;BME280;4676;42.678;23.244;2023-05-10T09:16:39;94391.03;;;9.58;100.00
9277;BME280;4676;42.678;23.244;2023-05-10T09:19:06;94391.19;;;9.53;100.00
9277;BME280;4676;42.678;23.244;2023-05-10T09:21:34;94384.88;;;9.66;100.00
9277;BME280;4676;42.678;23.244;2023-05-10T09:24:03;94379.59;;;9.72;100.00
9277;BME280;4676;42.678;23.244;2023-05-10T09:26:31;94390.53;;;9.74;100.00
9277;BME280;4676;42.678;23.244;2023-05-10T09:29:00;94382.97;;;9.73;100.00
9277;BME280;4676;42.678;23.244;2023-05-10T09:31:44;94391.25;;;9.78;100.00
9277;BME280;4676;42.678;23.244;2023-05-10T09:34:15;94387.59;;;9.86;100.00
9277;BME280;4676;42.678;23.244;2023-05-10T09:36:53;94395.66;;;9.97;100.00
9277;BME280;4676;42.678;23.244;2023-05-10T09:39:20;94379.94;;;10.14;100.00
9277;BME280;4676;42.678;23.244;2023-05-10T09:41:47;94387.66;;;10.10;100.00
9277;BME280;4676;42.678;23.244;2023-05-10T09:44:17;94387.53;;;10.14;100.00
9277;BME280;4676;42.678;23.244;2023-05-10T09:46:49;94381.56;;;10.17;100.00
9277;BME280;4676;42.678;23.244;2023-05-10T09:49:18;94382.31;;;10.19;100.00
9277;BME280;4676;42.678;23.244;2023-05-10T09:51:44;94380.63;;;10.19;100.00
9277;BME280;4676;42.678;23.244;2023-05-10T09:54:13;94376.13;;;10.01;100.00
9277;BME280;4676;42.678;23.244;2023-05-10T09:56:40;94356.03;;;9.96;100.00
9277;BME280;4676;42.678;23.244;2023-05-10T09:59:08;94374.22;;;10.08;100.00
9277;BME280;4676;42.678;23.244;2023-05-10T10:01:37;94365.63;;;10.12;100.00
9277;BME280;4676;42.678;23.244;2023-05-10T10:04:04;94363.16;;;10.35;100.00
9277;BME280;4676;42.678;23.244;2023-05-10T10:06:35;94363.53;;;10.24;100.00
9277;BME280;4676;42.678;23.244;2023-05-10T10:09:03;94358.50;;;10.47;100.00
9277;BME280;4676;42.678;23.244;2023-05-10T10:11:30;94366.59;;;10.57;100.00
9277;BME280;4676;42.678;23.244;2023-05-10T10:13:58;94357.41;;;10.55;100.00
9277;BME280;4676;42.678;23.244;2023-05-10T10:16:25;94357.19;;;10.37;100.00
9277;BME280;4676;42.678;23.244;2023-05-10T10:18:54;94352.72;;;10.44;100.00
9277;BME280;4676;42.678;23.244;2023-05-10T10:21:22;94344.91;;;10.27;100.00
9277;BME280;4676;42.678;23.244;2023-05-10T10:23:49;94354.50;;;10.17;100.00
9277;BME280;4676;42.678;23.244;2023-05-10T10:26:17;94358.22;;;10.32;100.00
9277;BME280;4676;42.678;23.244;2023-05-10T10:28:50;94359.72;;;10.37;100.00
9277;BME280;4676;42.678;23.244;2023-05-10T10:31:26;94363.34;;;10.53;100.00
9277;BME280;4676;42.678;23.244;2023-05-10T10:34:05;94362.03;;;10.43;100.00
9277;BME280;4676;42.678;23.244;2023-05-10T10:36:32;94357.34;;;10.56;100.00
9277;BME280;4676;42.678;23.244;2023-05-10T10:39:01;94357.94;;;10.63;100.00
9277;BME280;4676;42.678;23.244;2023-05-10T10:41:31;94365.41;;;10.67;100.00
9277;BME280;4676;42.678;23.244;2023-05-10T10:44:25;94355.16;;;10.47;100.00
9277;BME280;4676;42.678;23.244;2023-05-10T10:46:59;94354.34;;;10.45;100.00
9277;BME280;4676;42.678;23.244;2023-05-10T10:49:30;94362.72;;;10.24;100.00
9277;BME280;4676;42.678;23.244;2023-05-10T10:52:22;94353.09;;;10.09;100.00
9277;BME280;4676;42.678;23.244;2023-05-10T10:54:52;94370.63;;;10.15;100.00
9277;BME280;4676;42.678;23.244;2023-05-10T10:57:20;94356.38;;;10.11;100.00
9277;BME280;4676;42.678;23.244;2023-05-10T10:59:48;94360.19;;;10.24;100.00
9277;BME280;4676;42.678;23.244;2023-05-10T11:02:33;94359.88;;;10.33;100.00
9277;BME280;4676;42.678;23.244;2023-05-10T11:05:25;94365.53;;;10.39;100.00
9277;BME280;4676;42.678;23.244;2023-05-10T11:08:00;94357.69;;;10.47;100.00
9277;BME280;4676;42.678;23.244;2023-05-10T11:10:27;94356.63;;;10.52;100.00
9277;BME280;4676;42.678;23.244;2023-05-10T11:12:59;94354.16;;;10.51;100.00
9277;BME280;4676;42.678;23.244;2023-05-10T11:15:30;94349.81;;;10.55;100.00
9277;BME280;4676;42.678;23.244;2023-05-10T11:17:57;94341.59;;;10.48;100.00
9277;BME280;4676;42.678;23.244;2023-05-10T11:20:27;94348.91;;;10.56;100.00
9277;BME280;4676;42.678;23.244;2023-05-10T11:23:10;94360.06;;;10.51;100.00
9277;BME280;4676;42.678;23.244;2023-05-10T11:25:41;94360.31;;;10.67;100.00
9277;BME280;4676;42.678;23.244;2023-05-10T11:28:09;94350.97;;;10.69;100.00
9277;BME280;4676;42.678;23.244;2023-05-10T11:30:36;94334.50;;;10.58;100.00
9277;BME280;4676;42.678;23.244;2023-05-10T11:33:03;94361.28;;;10.65;100.00
9277;BME280;4676;42.678;23.244;2023-05-10T11:35:31;94359.38;;;10.46;100.00
9277;BME280;4676;42.678;23.244;2023-05-10T11:38:05;94354.75;;;10.34;100.00
9277;BME280;4676;42.678;23.244;2023-05-10T11:40:32;94360.16;;;10.48;100.00
9277;BME280;4676;42.678;23.244;2023-05-10T11:42:59;94362.75;;;10.47;100.00
9277;BME280;4676;42.678;23.244;2023-05-10T11:45:26;94353.22;;;10.53;100.00
9277;BME280;4676;42.678;23.244;2023-05-10T11:47:53;94354.53;;;10.64;100.00
9277;BME280;4676;42.678;23.244;2023-05-10T11:50:20;94349.63;;;10.59;100.00
9277;BME280;4676;42.678;23.244;2023-05-10T11:52:51;94348.00;;;10.58;100.00
9277;BME280;4676;42.678;23.244;2023-05-10T11:55:18;94350.28;;;10.64;100.00
9277;BME280;4676;42.678;23.244;2023-05-10T11:57:45;94344.25;;;10.68;100.00
9277;BME280;4676;42.678;23.244;2023-05-10T12:00:13;94354.81;;;10.79;100.00
9277;BME280;4676;42.678;23.244;2023-05-10T12:02:40;94344.69;;;10.79;100.00
9277;BME280;4676;42.678;23.244;2023-05-10T12:05:07;94346.44;;;10.77;100.00
9277;BME280;4676;42.678;23.244;2023-05-10T12:07:34;94340.09;;;10.89;100.00
9277;BME280;4676;42.678;23.244;2023-05-10T12:10:26;94339.94;;;10.93;100.00
9277;BME280;4676;42.678;23.244;2023-05-10T12:12:53;94342.03;;;10.82;100.00
9277;BME280;4676;42.678;23.244;2023-05-10T12:15:21;94341.25;;;10.80;100.00
9277;BME280;4676;42.678;23.244;2023-05-10T12:17:49;94332.84;;;10.80;100.00
9277;BME280;4676;42.678;23.244;2023-05-10T12:20:17;94338.72;;;10.80;100.00
9277;BME280;4676;42.678;23.244;2023-05-10T12:22:49;94320.09;;;10.81;100.00
9277;BME280;4676;42.678;23.244;2023-05-10T12:25:18;94335.31;;;11.03;100.00
9277;BME280;4676;42.678;23.244;2023-05-10T12:27:51;94326.69;;;10.85;100.00
9277;BME280;4676;42.678;23.244;2023-05-10T12:30:23;94330.69;;;11.14;100.00
9277;BME280;4676;42.678;23.244;2023-05-10T12:32:50;94329.78;;;11.37;100.00
9277;BME280;4676;42.678;23.244;2023-05-10T12:35:18;94334.47;;;11.26;100.00
9277;BME280;4676;42.678;23.244;2023-05-10T12:37:47;94326.47;;;11.13;100.00
9277;BME280;4676;42.678;23.244;2023-05-10T12:40:14;94331.00;;;11.05;100.00
9277;BME280;4676;42.678;23.244;2023-05-10T12:42:42;94326.19;;;10.99;100.00
9277;BME280;4676;42.678;23.244;2023-05-10T12:45:11;94324.22;;;11.06;100.00
9277;BME280;4676;42.678;23.244;2023-05-10T12:47:38;94322.66;;;11.03;100.00
9277;BME280;4676;42.678;23.244;2023-05-10T12:50:05;94320.63;;;10.89;100.00
9277;BME280;4676;42.678;23.244;2023-05-10T12:52:32;94324.59;;;10.73;100.00
9277;BME280;4676;42.678;23.244;2023-05-10T12:54:59;94321.75;;;10.82;100.00
9277;BME280;4676;42.678;23.244;2023-05-10T12:57:26;94313.19;;;10.85;100.00
9277;BME280;4676;42.678;23.244;2023-05-10T12:59:55;94314.25;;;10.79;100.00
9277;BME280;4676;42.678;23.244;2023-05-10T13:02:21;94311.44;;;10.87;100.00
9277;BME280;4676;42.678;23.244;2023-05-10T13:04:49;94306.41;;;10.85;100.00
9277;BME280;4676;42.678;23.244;2023-05-10T13:07:16;94297.56;;;10.74;100.00
9277;BME280;4676;42.678;23.244;2023-05-10T13:09:42;94299.88;;;10.80;100.00
9277;BME280;4676;42.678;23.244;2023-05-10T13:12:09;94298.81;;;10.85;100.00
9277;BME280;4676;42.678;23.244;2023-05-10T13:14:36;94274.84;;;10.71;100.00